createdAt,value
2019-06-20T00:01:48.107Z,5.53
2019-06-20T00:04:18.814Z,5.07
2019-06-20T00:06:49.841Z,5.13
2019-06-20T00:09:20.887Z,5.23
2019-06-20T00:11:51.533Z,5.17
2019-06-20T00:14:22.516Z,5.60
2019-06-20T00:16:53.485Z,5.27
2019-06-20T00:19:24.177Z,5.70
2019-06-20T00:21:55.130Z,4.90
2019-06-20T00:24:26.091Z,5.37
2019-06-20T00:26:56.803Z,5.47
2019-06-20T00:29:27.527Z,5.50
2019-06-20T00:31:59.543Z,5.20
2019-06-20T00:34:30.314Z,5.23
2019-06-20T00:37:02.646Z,5.80
2019-06-20T00:39:33.782Z,6.03
2019-06-20T00:42:04.484Z,5.80
2019-06-20T00:44:35.557Z,6.13
2019-06-20T00:47:06.338Z,6.13
2019-06-20T00:49:38.348Z,6.07
2019-06-20T00:52:09.376Z,6.30
2019-06-20T00:54:40.327Z,5.73
2019-06-20T00:57:11.053Z,5.13
2019-06-20T00:59:42.007Z,5.70
2019-06-20T01:02:12.676Z,5.47
2019-06-20T01:04:43.362Z,5.63
2019-06-20T01:07:14.246Z,5.40
2019-06-20T01:09:44.926Z,5.70
2019-06-20T01:12:15.872Z,5.40
2019-06-20T01:14:46.587Z,5.70
2019-06-20T01:17:17.550Z,5.80
2019-06-20T01:19:48.740Z,5.57
2019-06-20T01:22:19.747Z,5.50
2019-06-20T01:24:50.715Z,5.20
2019-06-20T01:27:21.625Z,5.27
2019-06-20T01:29:52.318Z,5.40
2019-06-20T01:32:23.367Z,5.87
2019-06-20T01:34:54.046Z,5.50
2019-06-20T01:37:24.733Z,5.70
2019-06-20T01:39:55.743Z,5.10
2019-06-20T01:42:26.594Z,5.40
2019-06-20T01:44:57.259Z,5.40
2019-06-20T01:47:27.935Z,5.60
2019-06-20T01:49:58.947Z,5.47
2019-06-20T01:52:29.996Z,5.70
2019-06-20T01:55:00.687Z,5.50
2019-06-20T01:57:31.758Z,6.03
2019-06-20T02:00:02.507Z,5.50
2019-06-20T02:02:33.878Z,6.27
2019-06-20T02:05:09.624Z,5.33
2019-06-20T02:07:40.665Z,6.00
2019-06-20T02:10:11.761Z,6.00
2019-06-20T02:12:43.032Z,5.40
2019-06-20T02:15:13.776Z,5.50
2019-06-20T02:17:44.512Z,6.10
2019-06-20T02:20:55.619Z,6.03
2019-06-20T02:23:27.377Z,6.57
2019-06-20T02:25:58.329Z,6.00
2019-06-20T02:28:29.253Z,5.97
2019-06-20T02:30:59.917Z,6.10
2019-06-20T02:33:30.888Z,6.13
2019-06-20T02:36:01.582Z,6.47
2019-06-20T02:38:32.562Z,6.30
2019-06-20T02:41:03.542Z,6.37
2019-06-20T02:43:34.214Z,6.47
2019-06-20T02:46:05.894Z,6.60
2019-06-20T02:48:37.024Z,6.27
2019-06-20T02:51:07.779Z,6.50
2019-06-20T02:53:39.285Z,6.17
2019-06-20T02:56:09.968Z,6.30
2019-06-20T02:58:40.896Z,6.50
2019-06-20T03:01:11.573Z,6.77
2019-06-20T03:03:42.568Z,6.83
2019-06-20T03:06:13.628Z,6.37
2019-06-20T03:08:44.312Z,6.10
2019-06-20T03:11:15.006Z,6.27
2019-06-20T03:13:46.103Z,6.97
2019-06-20T03:16:17.153Z,5.97
2019-06-20T03:18:48.221Z,6.20
2019-06-20T03:21:19.220Z,6.50
2019-06-20T03:23:50.189Z,6.37
2019-06-20T03:26:21.145Z,7.00
2019-06-20T03:28:52.165Z,6.90
2019-06-20T03:31:23.212Z,6.87
2019-06-20T03:33:53.865Z,6.80
2019-06-20T03:36:24.588Z,6.93
2019-06-20T03:38:55.256Z,7.20
2019-06-20T03:41:26.341Z,6.70
2019-06-20T03:43:59.101Z,6.13
2019-06-20T03:46:29.665Z,7.50
2019-06-20T03:49:00.708Z,7.10
2019-06-20T03:51:31.757Z,6.83
2019-06-20T03:54:02.698Z,7.27
2019-06-20T03:56:33.620Z,7.80
2019-06-20T03:59:04.440Z,7.10
2019-06-20T04:01:35.359Z,6.90
2019-06-20T04:04:06.061Z,6.50
2019-06-20T04:06:36.777Z,6.80
2019-06-20T04:09:08.178Z,6.67
2019-06-20T04:11:39.124Z,7.23
2019-06-20T04:14:10.082Z,7.73
2019-06-20T04:16:40.760Z,7.00
2019-06-20T04:19:11.714Z,6.40
2019-06-20T04:21:42.829Z,6.90
2019-06-20T04:24:13.650Z,6.73
2019-06-20T04:26:44.338Z,6.30
2019-06-20T04:29:15.349Z,6.63
2019-06-20T04:31:46.067Z,6.40
2019-06-20T04:34:17.116Z,6.47
2019-06-20T04:36:48.249Z,6.40
2019-06-20T04:39:19.803Z,5.97
2019-06-20T04:41:50.555Z,5.70
2019-06-20T04:44:21.499Z,5.57
2019-06-20T04:46:56.712Z,6.40
2019-06-20T04:49:27.446Z,6.27
2019-06-20T04:51:58.553Z,6.50
2019-06-20T04:54:29.223Z,7.23
2019-06-20T04:57:02.261Z,6.33
2019-06-20T04:59:33.481Z,6.87
2019-06-20T05:02:04.478Z,6.57
2019-06-20T05:04:35.137Z,6.90
2019-06-20T05:07:16.266Z,6.97
2019-06-20T05:09:46.938Z,7.47
2019-06-20T05:12:18.221Z,7.67
2019-06-20T05:14:49.184Z,7.93
2019-06-20T05:17:20.369Z,7.13
2019-06-20T05:19:51.029Z,7.47
2019-06-20T05:22:22.042Z,7.17
2019-06-20T05:24:52.721Z,7.40
2019-06-20T05:27:23.796Z,7.30
2019-06-20T05:29:54.488Z,8.03
2019-06-20T05:32:25.457Z,8.33
2019-06-20T05:34:57.440Z,8.00
2019-06-20T05:37:28.420Z,7.60
2019-06-20T05:39:59.516Z,7.53
2019-06-20T05:42:30.186Z,7.70
2019-06-20T05:45:01.194Z,7.90
2019-06-20T05:47:32.219Z,8.50
2019-06-20T05:50:03.362Z,8.00
2019-06-20T05:52:35.058Z,8.87
2019-06-20T05:55:08.903Z,8.83
2019-06-20T05:57:40.280Z,9.10
2019-06-20T06:00:12.503Z,8.43
2019-06-20T06:02:43.465Z,7.83
2019-06-20T06:05:15.732Z,8.43
2019-06-20T06:07:46.886Z,8.10
2019-06-20T06:10:19.481Z,8.17
2019-06-20T06:12:50.159Z,7.43
2019-06-20T06:15:21.430Z,7.23
2019-06-20T06:17:52.373Z,7.10
2019-06-20T06:20:23.674Z,7.33
2019-06-20T06:22:54.359Z,7.00
2019-06-20T06:25:25.108Z,7.70
2019-06-20T06:27:56.063Z,7.10
2019-06-20T06:30:27.633Z,6.90
2019-06-20T06:32:58.647Z,7.60
2019-06-20T06:35:29.818Z,7.73
2019-06-20T06:38:00.755Z,7.27
2019-06-20T06:40:31.594Z,7.07
2019-06-20T06:43:02.556Z,6.70
2019-06-20T06:45:33.305Z,7.00
2019-06-20T06:48:04.279Z,7.97
2019-06-20T06:50:35.281Z,7.53
2019-06-20T06:53:06.011Z,7.50
2019-06-20T06:55:36.951Z,7.43
2019-06-20T06:58:07.688Z,6.97
2019-06-20T07:00:38.652Z,6.77
2019-06-20T07:03:09.694Z,6.90
2019-06-20T07:05:40.614Z,7.03
2019-06-20T07:08:11.705Z,6.40
2019-06-20T07:10:45.187Z,6.23
2019-06-20T07:13:15.892Z,6.73
2019-06-20T07:15:46.849Z,5.17
2019-06-20T07:18:17.799Z,6.00
2019-06-20T07:20:48.857Z,5.90
2019-06-20T07:23:19.701Z,5.93
2019-06-20T07:25:51.206Z,5.43
2019-06-20T07:28:22.173Z,4.73
2019-06-20T07:30:53.077Z,5.30
2019-06-20T07:33:24.027Z,5.47
2019-06-20T07:35:55.401Z,5.07
2019-06-20T07:38:26.108Z,4.80
2019-06-20T07:40:56.798Z,4.40
2019-06-20T07:43:27.476Z,4.57
2019-06-20T07:46:02.485Z,4.43
2019-06-20T07:48:30.830Z,4.10
2019-06-20T07:51:01.494Z,4.10
2019-06-20T07:53:32.606Z,4.30
2019-06-20T07:56:03.732Z,4.60
2019-06-20T07:58:35.422Z,4.50
2019-06-20T08:01:06.793Z,4.30
2019-06-20T08:03:37.624Z,3.80
2019-06-20T08:06:08.305Z,3.93
2019-06-20T08:08:39.373Z,3.90
2019-06-20T08:11:10.311Z,4.10
2019-06-20T08:13:41.246Z,3.67
2019-06-20T08:16:11.997Z,3.87
2019-06-20T08:18:42.752Z,3.23
2019-06-20T08:21:15.444Z,3.47
2019-06-20T08:23:46.254Z,3.50
2019-06-20T08:26:17.736Z,3.40
2019-06-20T08:28:48.441Z,3.50
2019-06-20T08:31:19.559Z,3.33
2019-06-20T08:33:50.215Z,3.70
2019-06-20T08:36:21.388Z,3.53
2019-06-20T08:38:52.382Z,3.07
2019-06-20T08:41:23.346Z,3.20
2019-06-20T08:43:55.342Z,3.40
2019-06-20T08:46:26.981Z,2.90
2019-06-20T08:48:58.235Z,2.90
2019-06-20T08:51:30.086Z,3.27
2019-06-20T08:54:01.220Z,3.60
2019-06-20T08:56:33.843Z,3.57
2019-06-20T08:59:04.958Z,3.53
2019-06-20T09:01:35.952Z,3.60
2019-06-20T09:04:06.703Z,3.80
2019-06-20T09:06:37.664Z,3.87
2019-06-20T09:09:09.063Z,3.60
2019-06-20T09:11:39.791Z,4.00
2019-06-20T09:14:10.620Z,3.80
2019-06-20T09:16:41.547Z,4.23
2019-06-20T09:19:13.017Z,3.70
2019-06-20T09:21:44.285Z,3.63
2019-06-20T09:24:15.272Z,3.60
2019-06-20T09:26:45.977Z,3.87
2019-06-20T09:29:16.983Z,4.07
2019-06-20T09:31:48.003Z,4.23
2019-06-20T09:34:19.030Z,4.30
2019-06-20T09:36:52.021Z,4.40
2019-06-20T09:39:22.580Z,4.20
2019-06-20T09:41:54.400Z,4.30
2019-06-20T09:44:25.290Z,3.90
2019-06-20T09:46:56.455Z,3.63
2019-06-20T09:49:28.911Z,3.80
2019-06-20T09:52:00.066Z,3.50
2019-06-20T09:54:30.925Z,4.00
2019-06-20T09:57:01.916Z,4.00
2019-06-20T09:59:32.976Z,3.70
2019-06-20T10:02:03.912Z,3.73
2019-06-20T10:04:34.635Z,3.50
2019-06-20T10:07:05.737Z,3.20
2019-06-20T10:09:36.490Z,3.27
2019-06-20T10:12:07.627Z,3.80
2019-06-20T10:14:38.607Z,3.80
2019-06-20T10:17:09.533Z,3.73
2019-06-20T10:19:40.478Z,3.77
2019-06-20T10:22:11.422Z,3.67
2019-06-20T10:24:42.385Z,3.20
2019-06-20T10:27:13.468Z,4.07
2019-06-20T10:29:44.474Z,3.73
2019-06-20T10:32:17.065Z,3.77
2019-06-20T10:34:48.388Z,3.60
2019-06-20T10:37:19.506Z,3.40
2019-06-20T10:39:50.256Z,3.47
2019-06-20T10:42:22.127Z,3.10
2019-06-20T10:44:52.867Z,3.30
2019-06-20T10:47:33.575Z,3.13
2019-06-20T10:49:56.360Z,2.77
2019-06-20T10:52:27.481Z,3.20
2019-06-20T10:54:58.191Z,3.00
2019-06-20T10:57:29.053Z,3.13
2019-06-20T10:59:59.716Z,3.10
2019-06-20T11:02:30.367Z,3.50
2019-06-20T11:05:01.067Z,3.23
2019-06-20T11:07:33.202Z,3.00
2019-06-20T11:10:09.862Z,2.90
2019-06-20T11:12:47.853Z,3.17
2019-06-20T11:15:15.989Z,3.10
2019-06-20T11:17:48.330Z,3.30
2019-06-20T11:20:25.819Z,3.10
2019-06-20T11:22:57.217Z,3.03
2019-06-20T11:25:30.057Z,3.10
2019-06-20T11:28:00.874Z,3.10
2019-06-20T11:30:47.942Z,2.90
2019-06-20T11:33:07.544Z,3.03
2019-06-20T11:35:39.280Z,2.60
2019-06-20T11:38:10.269Z,2.50
2019-06-20T11:40:41.633Z,2.50
2019-06-20T11:43:12.913Z,2.63
2019-06-20T11:45:44.115Z,3.00
2019-06-20T11:48:15.126Z,2.80
2019-06-20T11:50:46.664Z,2.50
2019-06-20T11:53:17.712Z,2.90
2019-06-20T11:55:48.869Z,3.13
2019-06-20T11:58:19.711Z,2.87
2019-06-20T12:01:03.121Z,2.97
2019-06-20T12:03:23.711Z,3.00
2019-06-20T12:05:54.676Z,2.90
2019-06-20T12:08:25.667Z,2.73
2019-06-20T12:10:56.428Z,3.00
2019-06-20T12:13:29.275Z,2.87
2019-06-20T12:16:00.532Z,3.03
2019-06-20T12:18:31.581Z,2.70
2019-06-20T12:21:02.696Z,3.00
2019-06-20T12:23:33.788Z,3.20
2019-06-20T12:26:06.211Z,3.07
2019-06-20T12:28:39.002Z,3.03
2019-06-20T12:31:18.900Z,3.17
2019-06-20T12:33:42.516Z,3.00
2019-06-20T12:36:14.366Z,2.80
2019-06-20T12:38:46.275Z,3.10
2019-06-20T12:41:17.169Z,2.73
2019-06-20T12:43:48.327Z,2.70
2019-06-20T12:46:19.669Z,2.90
2019-06-20T12:48:50.340Z,3.20
2019-06-20T12:51:21.295Z,2.50
2019-06-20T12:53:51.947Z,2.43
2019-06-20T12:56:22.621Z,2.80
2019-06-20T12:58:54.050Z,3.00
2019-06-20T13:01:35.584Z,2.87
2019-06-20T13:03:58.726Z,2.90
2019-06-20T13:06:30.630Z,2.93
2019-06-20T13:09:01.925Z,2.60
2019-06-20T13:11:34.588Z,2.70
2019-06-20T13:14:05.270Z,2.73
2019-06-20T13:16:36.156Z,3.00
2019-06-20T13:19:10.976Z,2.53
2019-06-20T13:21:42.056Z,2.70
2019-06-20T13:24:13.100Z,2.40
2019-06-20T13:26:44.215Z,2.70
2019-06-20T13:29:15.174Z,2.97
2019-06-20T13:32:00.595Z,2.70
2019-06-20T13:34:18.756Z,2.30
2019-06-20T13:36:49.990Z,2.77
2019-06-20T13:39:21.233Z,2.90
2019-06-20T13:41:52.239Z,2.70
2019-06-20T13:44:23.910Z,2.77
2019-06-20T13:46:54.747Z,3.10
2019-06-20T13:49:25.849Z,3.07
2019-06-20T13:51:56.520Z,2.80
2019-06-20T13:54:27.452Z,2.93
2019-06-20T13:56:58.447Z,3.10
2019-06-20T13:59:29.265Z,3.43
2019-06-20T14:02:06.535Z,3.40
2019-06-20T14:04:33.596Z,3.13
2019-06-20T14:07:04.351Z,3.27
2019-06-20T14:09:35.406Z,3.47
2019-06-20T14:12:08.033Z,2.80
2019-06-20T14:14:39.219Z,3.63
2019-06-20T14:17:11.177Z,3.17
2019-06-20T14:19:43.735Z,2.80
2019-06-20T14:22:15.286Z,2.60
2019-06-20T14:24:45.991Z,2.57
2019-06-20T14:27:16.713Z,2.73
2019-06-20T14:29:49.137Z,2.57
2019-06-20T14:32:22.382Z,2.47
2019-06-20T14:34:52.416Z,2.70
2019-06-20T14:37:23.145Z,2.80
2019-06-20T14:39:55.018Z,2.83
2019-06-20T14:42:26.110Z,2.70
2019-06-20T14:44:57.254Z,3.00
2019-06-20T14:47:28.260Z,2.80
2019-06-20T14:49:59.235Z,2.90
2019-06-20T14:52:30.518Z,2.87
2019-06-20T14:55:01.616Z,2.77
2019-06-20T14:57:32.316Z,2.97
2019-06-20T15:00:03.173Z,2.60
2019-06-20T15:02:38.705Z,2.60
2019-06-20T15:05:17.305Z,2.33
2019-06-20T15:07:49.566Z,2.70
2019-06-20T15:10:20.736Z,2.70
2019-06-20T15:12:52.331Z,2.60
2019-06-20T15:15:24.211Z,2.70
2019-06-20T15:17:57.664Z,2.83
2019-06-20T15:20:27.866Z,2.73
2019-06-20T15:22:58.645Z,2.50
2019-06-20T15:25:30.125Z,2.60
2019-06-20T15:28:01.628Z,2.37
2019-06-20T15:30:32.323Z,2.80
2019-06-20T15:33:09.990Z,2.67
2019-06-20T15:35:35.396Z,2.60
2019-06-20T15:38:06.500Z,2.97
2019-06-20T15:40:40.225Z,2.70
2019-06-20T15:43:11.985Z,2.90
2019-06-20T15:45:44.812Z,2.47
2019-06-20T15:48:17.537Z,2.87
2019-06-20T15:50:48.471Z,3.03
2019-06-20T15:53:19.261Z,2.83
2019-06-20T15:55:50.431Z,2.80
2019-06-20T15:58:21.163Z,2.73
2019-06-20T16:00:51.860Z,2.80
2019-06-20T16:03:23.021Z,2.93
2019-06-20T16:05:53.843Z,2.60
2019-06-20T16:08:25.940Z,2.90
2019-06-20T16:10:56.904Z,3.47
2019-06-20T16:13:27.932Z,3.00
2019-06-20T16:15:58.898Z,4.77
2019-06-20T16:18:29.845Z,5.47
2019-06-20T16:21:00.813Z,3.60
2019-06-20T16:23:32.580Z,3.87
2019-06-20T16:26:03.223Z,3.13
2019-06-20T16:28:33.915Z,3.20
2019-06-20T16:31:08.694Z,4.07
2019-06-20T16:33:37.297Z,5.37
2019-06-20T16:36:08.222Z,3.70
2019-06-20T16:38:39.242Z,4.00
2019-06-20T16:41:10.051Z,14.70
2019-06-20T16:43:41.160Z,8.67
2019-06-20T16:46:11.878Z,5.10
2019-06-20T16:48:42.576Z,11.37
2019-06-20T16:51:13.599Z,13.27
2019-06-20T16:53:44.282Z,9.13
2019-06-20T16:56:15.327Z,3.53
2019-06-20T16:58:46.008Z,8.30
2019-06-20T17:01:16.942Z,23.17
2019-06-20T17:03:47.901Z,18.13
2019-06-20T17:06:18.913Z,22.33
2019-06-20T17:08:50.997Z,4.73
2019-06-20T17:11:21.981Z,4.17
2019-06-20T17:13:52.942Z,3.77
2019-06-20T17:16:23.914Z,6.40
2019-06-20T17:18:55.000Z,5.07
2019-06-20T17:21:25.772Z,4.17
2019-06-20T17:23:57.402Z,4.17
2019-06-20T17:26:28.465Z,3.80
2019-06-20T17:28:59.781Z,3.40
2019-06-20T17:31:31.412Z,3.30
2019-06-20T17:34:02.223Z,4.07
2019-06-20T17:36:32.911Z,4.80
2019-06-20T17:39:04.997Z,3.50
2019-06-20T17:41:37.402Z,3.50
2019-06-20T17:44:08.688Z,3.57
2019-06-20T17:46:39.355Z,3.30
2019-06-20T17:49:10.482Z,3.40
2019-06-20T17:51:42.153Z,3.50
2019-06-20T17:54:13.275Z,3.37
2019-06-20T17:56:44.363Z,3.67
2019-06-20T17:59:15.101Z,3.77
2019-06-20T18:01:46.297Z,3.30
2019-06-20T18:04:17.226Z,3.70
2019-06-20T18:06:48.205Z,3.60
2019-06-20T18:09:18.873Z,3.30
2019-06-20T18:11:50.092Z,3.33
2019-06-20T18:14:21.106Z,3.37
2019-06-20T18:16:52.252Z,3.43
2019-06-20T18:19:22.945Z,3.60
2019-06-20T18:21:53.640Z,3.47
2019-06-20T18:24:24.592Z,3.70
2019-06-20T18:26:55.557Z,4.10
2019-06-20T18:29:26.254Z,3.93
2019-06-20T18:31:57.251Z,4.30
2019-06-20T18:34:30.327Z,4.40
2019-06-20T18:37:00.422Z,4.37
2019-06-20T18:39:31.734Z,4.33
2019-06-20T18:42:02.883Z,4.13
2019-06-20T18:44:34.106Z,4.37
2019-06-20T18:47:05.167Z,4.73
2019-06-20T18:49:35.831Z,5.00
2019-06-20T18:52:06.645Z,4.40
2019-06-20T18:54:37.575Z,3.97
2019-06-20T18:57:08.304Z,3.90
2019-06-20T19:02:14.211Z,4.23
2019-06-20T19:04:50.449Z,4.50
2019-06-20T19:07:17.974Z,4.90
2019-06-20T19:09:48.982Z,4.40
2019-06-20T19:12:19.915Z,4.57
2019-06-20T19:14:50.929Z,4.30
2019-06-20T19:17:21.882Z,4.47
2019-06-20T19:19:52.818Z,4.53
2019-06-20T19:22:23.584Z,5.00
2019-06-20T19:24:54.272Z,4.60
2019-06-20T19:27:25.065Z,4.50
2019-06-20T19:29:56.265Z,4.40
2019-06-20T19:32:27.432Z,4.63
2019-06-20T19:35:02.481Z,4.70
2019-06-20T19:37:31.089Z,4.63
2019-06-20T19:40:01.992Z,4.80
2019-06-20T19:42:34.091Z,4.50
2019-06-20T19:45:12.839Z,4.20
2019-06-20T19:47:44.139Z,4.50
2019-06-20T19:50:15.592Z,4.70
2019-06-20T19:52:46.369Z,4.60
2019-06-20T19:55:17.848Z,4.53
2019-06-20T19:57:48.971Z,4.10
2019-06-20T20:00:21.707Z,4.67
2019-06-20T20:02:53.723Z,4.77
2019-06-20T20:05:25.067Z,4.33
2019-06-20T20:07:56.203Z,5.10
2019-06-20T20:10:40.017Z,4.87
2019-06-20T20:13:14.490Z,4.20
2019-06-20T20:15:45.782Z,5.40
2019-06-20T20:18:18.525Z,4.67
2019-06-20T20:20:50.204Z,4.30
2019-06-20T20:23:20.893Z,4.80
2019-06-20T20:25:52.037Z,5.40
2019-06-20T20:28:23.048Z,4.87
2019-06-20T20:30:54.554Z,4.60
2019-06-20T20:33:25.662Z,5.60
2019-06-20T20:35:57.366Z,4.50
2019-06-20T20:38:28.457Z,4.90
2019-06-20T20:40:59.413Z,4.90
2019-06-20T20:43:30.404Z,5.50
2019-06-20T20:46:01.429Z,4.90
2019-06-20T20:48:32.783Z,5.40
2019-06-20T20:51:03.624Z,6.37
2019-06-20T20:53:34.730Z,6.60
2019-06-20T20:56:05.451Z,5.77
2019-06-20T20:58:36.405Z,6.50
2019-06-20T21:01:14.355Z,8.90
2019-06-20T21:03:45.308Z,7.97
2019-06-20T21:06:16.335Z,9.30
2019-06-20T21:08:47.258Z,10.27
2019-06-20T21:11:18.235Z,11.10
2019-06-20T21:13:49.223Z,9.30
2019-06-20T21:16:19.947Z,11.23
2019-06-20T21:18:50.680Z,10.20
2019-06-20T21:21:22.122Z,11.80
2019-06-20T21:23:52.933Z,10.03
2019-06-20T21:26:24.036Z,9.57
2019-06-20T21:28:54.785Z,10.60
2019-06-20T21:31:25.873Z,10.20
2019-06-20T21:33:56.938Z,9.97
2019-06-20T21:36:27.719Z,9.77
2019-06-20T21:38:58.735Z,9.47
2019-06-20T21:41:29.791Z,9.10
2019-06-20T21:44:00.883Z,9.17
2019-06-20T21:46:31.878Z,8.37
2019-06-20T21:49:02.901Z,7.60
2019-06-20T21:51:33.573Z,7.77
2019-06-20T21:54:04.952Z,6.70
2019-06-20T21:56:35.965Z,6.13
2019-06-20T21:59:06.983Z,5.70
2019-06-20T22:01:39.106Z,6.93
2019-06-20T22:04:09.768Z,6.07
2019-06-20T22:06:40.953Z,6.07
2019-06-20T22:09:11.891Z,6.20
2019-06-20T22:11:43.746Z,6.50
2019-06-20T22:14:14.732Z,6.40
2019-06-20T22:16:45.766Z,6.80
2019-06-20T22:19:16.828Z,6.10
2019-06-20T22:21:47.657Z,6.67
2019-06-20T22:24:18.716Z,8.17
2019-06-20T22:26:49.647Z,7.70
2019-06-20T22:29:21.628Z,7.00
2019-06-20T22:31:52.672Z,9.63
2019-06-20T22:34:23.420Z,9.20
2019-06-20T22:36:54.129Z,8.07
2019-06-20T22:39:25.027Z,7.63
2019-06-20T22:41:55.792Z,7.33
2019-06-20T22:44:26.756Z,6.63
2019-06-20T22:46:57.503Z,5.90
2019-06-20T22:49:28.623Z,6.10
2019-06-20T22:51:59.571Z,6.00
2019-06-20T22:54:30.898Z,6.00
2019-06-20T22:57:01.621Z,6.13
2019-06-20T22:59:32.690Z,6.30
2019-06-20T23:02:06.608Z,7.10
2019-06-20T23:04:37.257Z,7.37
2019-06-20T23:07:08.273Z,7.60
2019-06-20T23:09:39.277Z,7.70
2019-06-20T23:12:09.992Z,7.00
2019-06-20T23:14:40.954Z,6.47
2019-06-20T23:17:11.636Z,6.00
2019-06-20T23:19:42.326Z,6.20
2019-06-20T23:22:13.290Z,5.83
2019-06-20T23:24:44.400Z,6.23
2019-06-20T23:27:15.328Z,6.00
2019-06-20T23:29:46.307Z,5.40
2019-06-20T23:32:16.979Z,5.97
2019-06-20T23:34:47.993Z,5.80
2019-06-20T23:37:18.973Z,6.30
2019-06-20T23:39:50.301Z,6.10
2019-06-20T23:42:21.266Z,6.90
2019-06-20T23:44:51.944Z,6.53
2019-06-20T23:47:22.916Z,6.97
2019-06-20T23:49:53.616Z,6.60
2019-06-20T23:52:26.294Z,6.10
2019-06-20T23:54:57.278Z,6.37
2019-06-20T23:57:28.259Z,6.67
2019-06-20T23:59:59.191Z,6.60
